sensor_id;sensor_type;location;lat;lon;timestamp;temperature;humidity
37426;DHT22;23285;50.180;7.036;2022-10-17T00:02:44;16.40;99.90
37426;DHT22;23285;50.180;7.036;2022-10-17T00:05:29;16.60;99.90
37426;DHT22;23285;50.180;7.036;2022-10-17T00:08:16;16.50;99.90
37426;DHT22;23285;50.180;7.036;2022-10-17T00:11:06;16.40;99.90
37426;DHT22;23285;50.180;7.036;2022-10-17T00:13:54;16.30;99.90
37426;DHT22;23285;50.180;7.036;2022-10-17T00:16:39;16.50;99.90
37426;DHT22;23285;50.180;7.036;2022-10-17T00:19:24;16.60;99.90
37426;DHT22;23285;50.180;7.036;2022-10-17T00:22:09;16.60;99.90
37426;DHT22;23285;50.180;7.036;2022-10-17T00:24:54;16.40;99.90
37426;DHT22;23285;50.180;7.036;2022-10-17T00:27:40;16.70;99.90
37426;DHT22;23285;50.180;7.036;2022-10-17T00:33:11;16.80;99.90
37426;DHT22;23285;50.180;7.036;2022-10-17T00:36:09;16.90;99.90
37426;DHT22;23285;50.180;7.036;2022-10-17T00:38:57;16.50;99.90
37426;DHT22;23285;50.180;7.036;2022-10-17T00:47:17;17.10;99.90
37426;DHT22;23285;50.180;7.036;2022-10-17T00:50:05;16.90;99.90
37426;DHT22;23285;50.180;7.036;2022-10-17T00:52:50;16.80;99.90
37426;DHT22;23285;50.180;7.036;2022-10-17T00:55:43;16.90;99.90
37426;DHT22;23285;50.180;7.036;2022-10-17T00:58:30;16.60;99.90
37426;DHT22;23285;50.180;7.036;2022-10-17T01:01:16;16.30;99.90
37426;DHT22;23285;50.180;7.036;2022-10-17T01:04:01;16.30;99.90
37426;DHT22;23285;50.180;7.036;2022-10-17T01:09:32;16.30;99.90
37426;DHT22;23285;50.180;7.036;2022-10-17T01:21:38;16.10;99.90
37426;DHT22;23285;50.180;7.036;2022-10-17T01:31:19;15.80;99.90
37426;DHT22;23285;50.180;7.036;2022-10-17T01:34:17;15.60;99.90
37426;DHT22;23285;50.180;7.036;2022-10-17T01:37:08;16.10;99.90
37426;DHT22;23285;50.180;7.036;2022-10-17T01:40:13;16.00;99.90
37426;DHT22;23285;50.180;7.036;2022-10-17T01:43:23;16.10;99.90
37426;DHT22;23285;50.180;7.036;2022-10-17T01:46:21;16.00;99.90
37426;DHT22;23285;50.180;7.036;2022-10-17T01:51:59;16.60;99.90
37426;DHT22;23285;50.180;7.036;2022-10-17T01:54:57;16.20;99.90
37426;DHT22;23285;50.180;7.036;2022-10-17T01:57:50;16.00;99.90
37426;DHT22;23285;50.180;7.036;2022-10-17T02:03:24;16.20;99.90
37426;DHT22;23285;50.180;7.036;2022-10-17T02:06:10;16.40;99.90
37426;DHT22;23285;50.180;7.036;2022-10-17T02:08:56;16.70;99.90
37426;DHT22;23285;50.180;7.036;2022-10-17T02:11:42;16.90;99.90
37426;DHT22;23285;50.180;7.036;2022-10-17T02:18:12;16.60;99.90
37426;DHT22;23285;50.180;7.036;2022-10-17T02:21:12;16.50;99.90
37426;DHT22;23285;50.180;7.036;2022-10-17T02:27:12;16.30;99.90
37426;DHT22;23285;50.180;7.036;2022-10-17T02:35:48;16.30;99.90
37426;DHT22;23285;50.180;7.036;2022-10-17T02:38:38;16.10;99.90
37426;DHT22;23285;50.180;7.036;2022-10-17T02:44:10;16.20;99.90
37426;DHT22;23285;50.180;7.036;2022-10-17T02:47:10;16.30;99.90
37426;DHT22;23285;50.180;7.036;2022-10-17T02:49:57;16.40;99.90
37426;DHT22;23285;50.180;7.036;2022-10-17T02:53:04;16.20;99.90
37426;DHT22;23285;50.180;7.036;2022-10-17T02:55:55;16.10;99.90
37426;DHT22;23285;50.180;7.036;2022-10-17T03:01:28;16.30;99.90
37426;DHT22;23285;50.180;7.036;2022-10-17T03:04:14;16.50;99.90
37426;DHT22;23285;50.180;7.036;2022-10-17T03:07:00;16.50;99.90
37426;DHT22;23285;50.180;7.036;2022-10-17T03:09:45;16.60;99.90
37426;DHT22;23285;50.180;7.036;2022-10-17T03:12:30;16.50;99.90
37426;DHT22;23285;50.180;7.036;2022-10-17T03:15:16;16.70;99.90
37426;DHT22;23285;50.180;7.036;2022-10-17T03:18:01;16.60;99.90
37426;DHT22;23285;50.180;7.036;2022-10-17T03:20:46;16.60;99.90
37426;DHT22;23285;50.180;7.036;2022-10-17T03:23:32;16.70;99.90
37426;DHT22;23285;50.180;7.036;2022-10-17T03:26:17;16.80;99.90
37426;DHT22;23285;50.180;7.036;2022-10-17T03:34:35;16.30;99.90
37426;DHT22;23285;50.180;7.036;2022-10-17T03:37:20;16.50;99.90
37426;DHT22;23285;50.180;7.036;2022-10-17T03:40:05;16.50;99.90
37426;DHT22;23285;50.180;7.036;2022-10-17T03:42:50;16.60;99.90
37426;DHT22;23285;50.180;7.036;2022-10-17T03:45:36;16.60;99.90
37426;DHT22;23285;50.180;7.036;2022-10-17T03:53:58;16.30;99.90
37426;DHT22;23285;50.180;7.036;2022-10-17T03:56:43;16.20;99.90
37426;DHT22;23285;50.180;7.036;2022-10-17T03:59:32;16.20;99.90
37426;DHT22;23285;50.180;7.036;2022-10-17T04:02:22;16.20;99.90
37426;DHT22;23285;50.180;7.036;2022-10-17T04:05:08;16.30;99.90
37426;DHT22;23285;50.180;7.036;2022-10-17T04:07:53;16.30;99.90
37426;DHT22;23285;50.180;7.036;2022-10-17T04:10:44;16.60;99.90
37426;DHT22;23285;50.180;7.036;2022-10-17T04:13:30;16.40;99.90
37426;DHT22;23285;50.180;7.036;2022-10-17T04:16:16;16.30;99.90
37426;DHT22;23285;50.180;7.036;2022-10-17T04:19:14;16.50;99.90
37426;DHT22;23285;50.180;7.036;2022-10-17T04:22:03;16.40;99.90
37426;DHT22;23285;50.180;7.036;2022-10-17T04:27:51;16.20;99.90
37426;DHT22;23285;50.180;7.036;2022-10-17T04:36:12;16.00;99.90
37426;DHT22;23285;50.180;7.036;2022-10-17T04:38:59;15.90;99.90
37426;DHT22;23285;50.180;7.036;2022-10-17T04:41:48;15.90;99.90
37426;DHT22;23285;50.180;7.036;2022-10-17T04:44:33;15.90;99.90
37426;DHT22;23285;50.180;7.036;2022-10-17T04:47:20;15.80;99.90
37426;DHT22;23285;50.180;7.036;2022-10-17T04:50:05;15.70;99.90
37426;DHT22;23285;50.180;7.036;2022-10-17T04:52:52;15.60;99.90
37426;DHT22;23285;50.180;7.036;2022-10-17T05:01:11;15.60;99.90
37426;DHT22;23285;50.180;7.036;2022-10-17T05:03:59;15.20;99.90
37426;DHT22;23285;50.180;7.036;2022-10-17T05:06:43;15.20;99.90
37426;DHT22;23285;50.180;7.036;2022-10-17T05:09:47;15.20;99.90
37426;DHT22;23285;50.180;7.036;2022-10-17T05:15:20;15.20;99.90
37426;DHT22;23285;50.180;7.036;2022-10-17T05:18:05;15.00;99.90
37426;DHT22;23285;50.180;7.036;2022-10-17T05:23:36;15.10;99.90
37426;DHT22;23285;50.180;7.036;2022-10-17T05:26:22;15.10;99.90
37426;DHT22;23285;50.180;7.036;2022-10-17T05:29:07;15.10;99.90
37426;DHT22;23285;50.180;7.036;2022-10-17T05:31:56;15.00;99.90
37426;DHT22;23285;50.180;7.036;2022-10-17T05:34:42;14.90;99.90
37426;DHT22;23285;50.180;7.036;2022-10-17T05:37:28;15.00;99.90
37426;DHT22;23285;50.180;7.036;2022-10-17T05:40:14;15.00;99.90
37426;DHT22;23285;50.180;7.036;2022-10-17T05:43:00;15.00;99.90
37426;DHT22;23285;50.180;7.036;2022-10-17T05:45:45;14.90;99.90
37426;DHT22;23285;50.180;7.036;2022-10-17T05:54:07;14.80;99.90
37426;DHT22;23285;50.180;7.036;2022-10-17T05:56:54;14.70;99.90
37426;DHT22;23285;50.180;7.036;2022-10-17T05:59:43;14.90;99.90
37426;DHT22;23285;50.180;7.036;2022-10-17T06:02:35;15.10;99.90
37426;DHT22;23285;50.180;7.036;2022-10-17T06:05:21;15.30;99.90
37426;DHT22;23285;50.180;7.036;2022-10-17T06:08:06;15.20;99.90
37426;DHT22;23285;50.180;7.036;2022-10-17T06:10:54;14.80;99.90
37426;DHT22;23285;50.180;7.036;2022-10-17T06:13:39;14.70;99.90
37426;DHT22;23285;50.180;7.036;2022-10-17T06:16:31;14.80;99.90
37426;DHT22;23285;50.180;7.036;2022-10-17T06:22:04;14.80;99.90
37426;DHT22;23285;50.180;7.036;2022-10-17T06:27:37;14.70;99.90
37426;DHT22;23285;50.180;7.036;2022-10-17T06:30:22;14.70;99.90
37426;DHT22;23285;50.180;7.036;2022-10-17T06:33:07;14.70;99.90
37426;DHT22;23285;50.180;7.036;2022-10-17T06:35:53;14.70;99.90
37426;DHT22;23285;50.180;7.036;2022-10-17T06:38:41;14.70;99.90
37426;DHT22;23285;50.180;7.036;2022-10-17T06:44:24;14.70;99.90
37426;DHT22;23285;50.180;7.036;2022-10-17T06:47:35;14.80;99.90
37426;DHT22;23285;50.180;7.036;2022-10-17T06:50:29;15.00;99.90
37426;DHT22;23285;50.180;7.036;2022-10-17T06:53:39;15.10;99.90
37426;DHT22;23285;50.180;7.036;2022-10-17T06:56:30;15.40;99.90
37426;DHT22;23285;50.180;7.036;2022-10-17T06:59:31;15.30;99.90
37426;DHT22;23285;50.180;7.036;2022-10-17T07:02:27;15.40;99.90
37426;DHT22;23285;50.180;7.036;2022-10-17T07:08:00;15.90;99.90
37426;DHT22;23285;50.180;7.036;2022-10-17T07:10:45;15.90;99.90
37426;DHT22;23285;50.180;7.036;2022-10-17T07:16:16;16.10;99.90
37426;DHT22;23285;50.180;7.036;2022-10-17T07:21:53;16.20;99.90
37426;DHT22;23285;50.180;7.036;2022-10-17T07:27:44;16.00;99.90
37426;DHT22;23285;50.180;7.036;2022-10-17T07:33:20;16.20;99.90
37426;DHT22;23285;50.180;7.036;2022-10-17T07:36:06;16.10;99.90
37426;DHT22;23285;50.180;7.036;2022-10-17T07:41:38;16.30;99.90
37426;DHT22;23285;50.180;7.036;2022-10-17T07:44:23;16.40;99.90
37426;DHT22;23285;50.180;7.036;2022-10-17T07:49:56;16.10;99.90
37426;DHT22;23285;50.180;7.036;2022-10-17T08:01:06;16.30;99.90
37426;DHT22;23285;50.180;7.036;2022-10-17T08:03:52;16.30;99.90
37426;DHT22;23285;50.180;7.036;2022-10-17T08:06:37;16.30;99.90
37426;DHT22;23285;50.180;7.036;2022-10-17T08:09:22;16.40;99.90
37426;DHT22;23285;50.180;7.036;2022-10-17T08:17:38;16.60;99.90
37426;DHT22;23285;50.180;7.036;2022-10-17T08:20:23;16.70;99.90
37426;DHT22;23285;50.180;7.036;2022-10-17T08:23:09;16.80;99.90
37426;DHT22;23285;50.180;7.036;2022-10-17T08:25:58;16.80;99.90
37426;DHT22;23285;50.180;7.036;2022-10-17T08:36:59;17.00;99.90
37426;DHT22;23285;50.180;7.036;2022-10-17T08:39:44;17.10;99.90
37426;DHT22;23285;50.180;7.036;2022-10-17T08:54:25;17.50;99.90
37426;DHT22;23285;50.180;7.036;2022-10-17T08:57:16;17.50;99.90
37426;DHT22;23285;50.180;7.036;2022-10-17T09:00:01;17.50;99.90
37426;DHT22;23285;50.180;7.036;2022-10-17T09:06:17;17.60;99.90
37426;DHT22;23285;50.180;7.036;2022-10-17T09:25:58;18.20;99.90
37426;DHT22;23285;50.180;7.036;2022-10-17T09:31:41;18.40;99.90
37426;DHT22;23285;50.180;7.036;2022-10-17T09:34:28;18.50;99.90
37426;DHT22;23285;50.180;7.036;2022-10-17T09:40:01;18.30;99.90
37426;DHT22;23285;50.180;7.036;2022-10-17T09:49:00;18.80;99.90
37426;DHT22;23285;50.180;7.036;2022-10-17T09:51:47;18.80;99.90
37426;DHT22;23285;50.180;7.036;2022-10-17T09:57:28;19.20;99.90
37426;DHT22;23285;50.180;7.036;2022-10-17T10:00:23;19.10;99.90
37426;DHT22;23285;50.180;7.036;2022-10-17T10:06:12;19.10;99.90
37426;DHT22;23285;50.180;7.036;2022-10-17T10:11:50;19.10;99.90
37426;DHT22;23285;50.180;7.036;2022-10-17T10:14:36;19.20;99.90
37426;DHT22;23285;50.180;7.036;2022-10-17T10:23:22;19.30;99.90
37426;DHT22;23285;50.180;7.036;2022-10-17T10:26:16;19.20;99.90
37426;DHT22;23285;50.180;7.036;2022-10-17T10:29:27;19.40;99.90
37426;DHT22;23285;50.180;7.036;2022-10-17T10:38:14;19.90;99.90
37426;DHT22;23285;50.180;7.036;2022-10-17T10:41:04;19.70;99.90
37426;DHT22;23285;50.180;7.036;2022-10-17T10:43:50;19.50;99.90
37426;DHT22;23285;50.180;7.036;2022-10-17T10:46:36;19.60;99.90
37426;DHT22;23285;50.180;7.036;2022-10-17T10:49:31;19.70;99.90
37426;DHT22;23285;50.180;7.036;2022-10-17T10:52:30;19.60;99.90
37426;DHT22;23285;50.180;7.036;2022-10-17T10:58:14;20.10;99.90
37426;DHT22;23285;50.180;7.036;2022-10-17T11:01:06;20.00;99.90
37426;DHT22;23285;50.180;7.036;2022-10-17T11:06:43;20.10;99.90
37426;DHT22;23285;50.180;7.036;2022-10-17T11:27:12;20.30;99.90
37426;DHT22;23285;50.180;7.036;2022-10-17T11:29:58;20.30;99.90
37426;DHT22;23285;50.180;7.036;2022-10-17T11:32:49;20.30;99.90
37426;DHT22;23285;50.180;7.036;2022-10-17T11:35:40;20.50;99.90
37426;DHT22;23285;50.180;7.036;2022-10-17T11:38:40;20.80;99.90
37426;DHT22;23285;50.180;7.036;2022-10-17T11:41:33;21.00;99.90
37426;DHT22;23285;50.180;7.036;2022-10-17T11:47:35;21.00;99.90
37426;DHT22;23285;50.180;7.036;2022-10-17T11:50:37;21.20;99.90
37426;DHT22;23285;50.180;7.036;2022-10-17T11:56:10;21.60;99.90
37426;DHT22;23285;50.180;7.036;2022-10-17T12:02:47;21.80;99.90
37426;DHT22;23285;50.180;7.036;2022-10-17T12:06:06;21.70;99.90
37426;DHT22;23285;50.180;7.036;2022-10-17T12:09:19;21.40;99.90
37426;DHT22;23285;50.180;7.036;2022-10-17T12:12:08;21.50;99.90
37426;DHT22;23285;50.180;7.036;2022-10-17T12:14:53;21.60;99.90
37426;DHT22;23285;50.180;7.036;2022-10-17T12:20:56;21.60;99.90
37426;DHT22;23285;50.180;7.036;2022-10-17T12:29:28;21.60;99.90
37426;DHT22;23285;50.180;7.036;2022-10-17T12:32:14;21.50;99.90
37426;DHT22;23285;50.180;7.036;2022-10-17T12:34:59;21.50;99.90
37426;DHT22;23285;50.180;7.036;2022-10-17T12:46:12;21.40;99.90
37426;DHT22;23285;50.180;7.036;2022-10-17T12:48:59;21.50;99.90
37426;DHT22;23285;50.180;7.036;2022-10-17T12:55:14;21.60;99.90
37426;DHT22;23285;50.180;7.036;2022-10-17T12:58:02;21.50;99.90
37426;DHT22;23285;50.180;7.036;2022-10-17T13:03:43;22.10;99.90
37426;DHT22;23285;50.180;7.036;2022-10-17T13:06:32;22.00;99.90
37426;DHT22;23285;50.180;7.036;2022-10-17T13:09:26;21.90;99.90
37426;DHT22;23285;50.180;7.036;2022-10-17T13:12:23;21.70;99.90
37426;DHT22;23285;50.180;7.036;2022-10-17T13:15:11;21.60;99.90
37426;DHT22;23285;50.180;7.036;2022-10-17T13:18:00;21.50;99.90
37426;DHT22;23285;50.180;7.036;2022-10-17T13:29:14;21.40;99.90
37426;DHT22;23285;50.180;7.036;2022-10-17T13:32:01;21.70;99.90
37426;DHT22;23285;50.180;7.036;2022-10-17T13:37:51;21.60;99.90
37426;DHT22;23285;50.180;7.036;2022-10-17T13:40:40;21.50;99.90
37426;DHT22;23285;50.180;7.036;2022-10-17T13:43:26;21.60;99.90
37426;DHT22;23285;50.180;7.036;2022-10-17T13:46:19;21.90;99.90
37426;DHT22;23285;50.180;7.036;2022-10-17T13:49:33;21.80;99.90
37426;DHT22;23285;50.180;7.036;2022-10-17T13:52:21;21.70;99.90
37426;DHT22;23285;50.180;7.036;2022-10-17T13:58:16;21.40;99.90
37426;DHT22;23285;50.180;7.036;2022-10-17T14:01:01;21.30;99.90
37426;DHT22;23285;50.180;7.036;2022-10-17T14:06:32;21.30;99.90
37426;DHT22;23285;50.180;7.036;2022-10-17T14:09:25;21.10;99.90
37426;DHT22;23285;50.180;7.036;2022-10-17T14:12:12;21.00;99.90
37426;DHT22;23285;50.180;7.036;2022-10-17T14:14:57;20.80;99.90
37426;DHT22;23285;50.180;7.036;2022-10-17T14:20:29;20.70;99.90
37426;DHT22;23285;50.180;7.036;2022-10-17T14:29:13;20.90;99.90
37426;DHT22;23285;50.180;7.036;2022-10-17T14:34:53;21.10;99.90
37426;DHT22;23285;50.180;7.036;2022-10-17T14:37:42;21.00;99.90
37426;DHT22;23285;50.180;7.036;2022-10-17T14:40:30;20.80;99.90
37426;DHT22;23285;50.180;7.036;2022-10-17T14:43:20;21.00;99.90
37426;DHT22;23285;50.180;7.036;2022-10-17T14:46:10;20.90;99.90
37426;DHT22;23285;50.180;7.036;2022-10-17T14:49:14;20.60;99.90
37426;DHT22;23285;50.180;7.036;2022-10-17T14:55:25;20.50;99.90
37426;DHT22;23285;50.180;7.036;2022-10-17T15:01:03;20.80;99.90
37426;DHT22;23285;50.180;7.036;2022-10-17T15:03:48;20.50;99.90
37426;DHT22;23285;50.180;7.036;2022-10-17T15:06:33;20.50;99.90
37426;DHT22;23285;50.180;7.036;2022-10-17T15:09:18;20.50;99.90
37426;DHT22;23285;50.180;7.036;2022-10-17T15:12:06;20.60;99.90
37426;DHT22;23285;50.180;7.036;2022-10-17T15:14:55;20.90;99.90
37426;DHT22;23285;50.180;7.036;2022-10-17T15:17:40;21.20;99.90
37426;DHT22;23285;50.180;7.036;2022-10-17T15:23:13;21.40;99.90
37426;DHT22;23285;50.180;7.036;2022-10-17T15:26:00;21.30;99.90
37426;DHT22;23285;50.180;7.036;2022-10-17T15:28:46;21.20;99.90
37426;DHT22;23285;50.180;7.036;2022-10-17T15:31:31;21.10;99.90
37426;DHT22;23285;50.180;7.036;2022-10-17T15:34:17;21.00;99.90
37426;DHT22;23285;50.180;7.036;2022-10-17T15:48:27;21.20;99.90
37426;DHT22;23285;50.180;7.036;2022-10-17T15:51:13;20.90;99.90
37426;DHT22;23285;50.180;7.036;2022-10-17T15:59:34;21.50;99.90
37426;DHT22;23285;50.180;7.036;2022-10-17T16:02:20;21.20;99.90
37426;DHT22;23285;50.180;7.036;2022-10-17T16:05:16;21.30;99.90
37426;DHT22;23285;50.180;7.036;2022-10-17T16:10:47;21.20;99.90
37426;DHT22;23285;50.180;7.036;2022-10-17T16:16:18;21.20;99.90
37426;DHT22;23285;50.180;7.036;2022-10-17T16:19:04;20.90;99.90
37426;DHT22;23285;50.180;7.036;2022-10-17T16:21:50;21.00;99.90
37426;DHT22;23285;50.180;7.036;2022-10-17T16:24:35;21.00;99.90
37426;DHT22;23285;50.180;7.036;2022-10-17T16:27:20;20.80;99.90
37426;DHT22;23285;50.180;7.036;2022-10-17T16:30:06;21.00;99.90
37426;DHT22;23285;50.180;7.036;2022-10-17T16:32:52;21.20;99.90
37426;DHT22;23285;50.180;7.036;2022-10-17T16:35:38;21.30;99.90
37426;DHT22;23285;50.180;7.036;2022-10-17T16:41:22;21.30;99.90
37426;DHT22;23285;50.180;7.036;2022-10-17T16:46:56;20.60;99.90
37426;DHT22;23285;50.180;7.036;2022-10-17T16:49:41;20.80;99.90
37426;DHT22;23285;50.180;7.036;2022-10-17T16:52:27;21.10;99.90
37426;DHT22;23285;50.180;7.036;2022-10-17T16:55:12;21.30;99.90
37426;DHT22;23285;50.180;7.036;2022-10-17T16:57:57;21.20;99.90
37426;DHT22;23285;50.180;7.036;2022-10-17T17:00:43;21.10;99.90
37426;DHT22;23285;50.180;7.036;2022-10-17T17:03:28;21.10;99.90
37426;DHT22;23285;50.180;7.036;2022-10-17T17:06:18;21.10;99.90
37426;DHT22;23285;50.180;7.036;2022-10-17T17:09:04;20.90;99.90
37426;DHT22;23285;50.180;7.036;2022-10-17T17:11:49;20.70;99.90
37426;DHT22;23285;50.180;7.036;2022-10-17T17:14:34;20.70;99.90
37426;DHT22;23285;50.180;7.036;2022-10-17T17:20:05;21.00;99.90
37426;DHT22;23285;50.180;7.036;2022-10-17T17:22:50;21.00;99.90
37426;DHT22;23285;50.180;7.036;2022-10-17T17:28:25;21.10;99.90
37426;DHT22;23285;50.180;7.036;2022-10-17T17:31:22;20.80;99.90
37426;DHT22;23285;50.180;7.036;2022-10-17T17:50:42;20.50;99.90
37426;DHT22;23285;50.180;7.036;2022-10-17T17:53:27;20.40;99.90
37426;DHT22;23285;50.180;7.036;2022-10-17T17:59:03;20.10;99.90
37426;DHT22;23285;50.180;7.036;2022-10-17T18:01:48;19.90;99.90
37426;DHT22;23285;50.180;7.036;2022-10-17T18:04:34;19.90;99.90
37426;DHT22;23285;50.180;7.036;2022-10-17T18:07:19;19.90;99.90
37426;DHT22;23285;50.180;7.036;2022-10-17T18:10:04;20.10;99.90
37426;DHT22;23285;50.180;7.036;2022-10-17T18:12:50;20.00;99.90
37426;DHT22;23285;50.180;7.036;2022-10-17T18:15:39;20.20;99.90
37426;DHT22;23285;50.180;7.036;2022-10-17T18:18:26;19.90;99.90
37426;DHT22;23285;50.180;7.036;2022-10-17T18:21:12;19.90;99.90
37426;DHT22;23285;50.180;7.036;2022-10-17T18:23:57;20.10;99.90
37426;DHT22;23285;50.180;7.036;2022-10-17T18:26:43;20.00;99.90
37426;DHT22;23285;50.180;7.036;2022-10-17T18:29:28;20.00;99.90
37426;DHT22;23285;50.180;7.036;2022-10-17T18:32:15;19.70;99.90
37426;DHT22;23285;50.180;7.036;2022-10-17T18:37:46;19.60;99.90
37426;DHT22;23285;50.180;7.036;2022-10-17T18:40:31;19.60;99.90
37426;DHT22;23285;50.180;7.036;2022-10-17T18:43:16;19.80;99.90
37426;DHT22;23285;50.180;7.036;2022-10-17T18:46:06;19.90;99.90
37426;DHT22;23285;50.180;7.036;2022-10-17T18:48:52;19.80;99.90
37426;DHT22;23285;50.180;7.036;2022-10-17T18:51:38;19.60;99.90
37426;DHT22;23285;50.180;7.036;2022-10-17T18:54:23;19.50;99.90
37426;DHT22;23285;50.180;7.036;2022-10-17T18:59:53;19.30;99.90
37426;DHT22;23285;50.180;7.036;2022-10-17T19:02:39;19.20;99.90
37426;DHT22;23285;50.180;7.036;2022-10-17T19:05:24;19.30;99.90
37426;DHT22;23285;50.180;7.036;2022-10-17T19:08:10;19.30;99.90
37426;DHT22;23285;50.180;7.036;2022-10-17T19:10:55;19.20;99.90
37426;DHT22;23285;50.180;7.036;2022-10-17T19:13:41;19.10;99.90
37426;DHT22;23285;50.180;7.036;2022-10-17T19:16:33;19.10;99.90
37426;DHT22;23285;50.180;7.036;2022-10-17T19:19:23;19.20;99.90
37426;DHT22;23285;50.180;7.036;2022-10-17T19:22:08;19.30;99.90
37426;DHT22;23285;50.180;7.036;2022-10-17T19:27:38;19.10;99.90
37426;DHT22;23285;50.180;7.036;2022-10-17T19:30:23;19.00;99.90
37426;DHT22;23285;50.180;7.036;2022-10-17T19:33:08;19.00;99.90
37426;DHT22;23285;50.180;7.036;2022-10-17T19:35:58;19.00;99.90
37426;DHT22;23285;50.180;7.036;2022-10-17T19:38:43;19.10;99.90
37426;DHT22;23285;50.180;7.036;2022-10-17T19:41:28;19.10;99.90
37426;DHT22;23285;50.180;7.036;2022-10-17T19:44:13;19.10;99.90
37426;DHT22;23285;50.180;7.036;2022-10-17T19:46:59;19.10;99.90
37426;DHT22;23285;50.180;7.036;2022-10-17T19:49:44;18.90;99.90
37426;DHT22;23285;50.180;7.036;2022-10-17T19:52:29;19.10;99.90
37426;DHT22;23285;50.180;7.036;2022-10-17T19:58:00;18.60;99.90
37426;DHT22;23285;50.180;7.036;2022-10-17T20:00:51;18.60;99.90
37426;DHT22;23285;50.180;7.036;2022-10-17T20:03:37;18.70;99.90
37426;DHT22;23285;50.180;7.036;2022-10-17T20:06:22;18.70;99.90
37426;DHT22;23285;50.180;7.036;2022-10-17T20:09:08;18.70;99.90
37426;DHT22;23285;50.180;7.036;2022-10-17T20:14:39;18.60;99.90
37426;DHT22;23285;50.180;7.036;2022-10-17T20:25:41;19.40;99.90
37426;DHT22;23285;50.180;7.036;2022-10-17T20:28:27;19.40;99.90
37426;DHT22;23285;50.180;7.036;2022-10-17T20:33:58;19.10;99.90
37426;DHT22;23285;50.180;7.036;2022-10-17T20:36:43;18.90;99.90
37426;DHT22;23285;50.180;7.036;2022-10-17T20:39:28;19.10;99.90
37426;DHT22;23285;50.180;7.036;2022-10-17T20:42:14;19.10;99.90
37426;DHT22;23285;50.180;7.036;2022-10-17T20:44:59;18.90;99.90
37426;DHT22;23285;50.180;7.036;2022-10-17T20:50:35;19.20;99.90
37426;DHT22;23285;50.180;7.036;2022-10-17T20:56:10;19.00;99.90
37426;DHT22;23285;50.180;7.036;2022-10-17T20:59:05;18.90;99.90
37426;DHT22;23285;50.180;7.036;2022-10-17T21:01:52;18.90;99.90
37426;DHT22;23285;50.180;7.036;2022-10-17T21:07:23;18.90;99.90
37426;DHT22;23285;50.180;7.036;2022-10-17T21:10:09;19.00;99.90
37426;DHT22;23285;50.180;7.036;2022-10-17T21:15:40;18.70;99.90
37426;DHT22;23285;50.180;7.036;2022-10-17T21:18:26;18.60;99.90
37426;DHT22;23285;50.180;7.036;2022-10-17T21:21:21;18.40;99.90
37426;DHT22;23285;50.180;7.036;2022-10-17T21:24:15;18.40;99.90
37426;DHT22;23285;50.180;7.036;2022-10-17T21:27:02;18.50;99.90
37426;DHT22;23285;50.180;7.036;2022-10-17T21:32:32;18.70;99.90
37426;DHT22;23285;50.180;7.036;2022-10-17T21:35:17;18.70;99.90
37426;DHT22;23285;50.180;7.036;2022-10-17T21:38:02;18.60;99.90
37426;DHT22;23285;50.180;7.036;2022-10-17T21:40:47;18.50;99.90
37426;DHT22;23285;50.180;7.036;2022-10-17T21:43:33;18.50;99.90
37426;DHT22;23285;50.180;7.036;2022-10-17T21:49:04;18.40;99.90
37426;DHT22;23285;50.180;7.036;2022-10-17T21:57:21;18.70;99.90
37426;DHT22;23285;50.180;7.036;2022-10-17T22:00:07;18.90;99.90
37426;DHT22;23285;50.180;7.036;2022-10-17T22:02:56;18.80;99.90
37426;DHT22;23285;50.180;7.036;2022-10-17T22:05:42;18.80;99.90
37426;DHT22;23285;50.180;7.036;2022-10-17T22:11:18;19.00;99.90
37426;DHT22;23285;50.180;7.036;2022-10-17T22:14:10;18.90;99.90
37426;DHT22;23285;50.180;7.036;2022-10-17T22:16:56;18.80;99.90
37426;DHT22;23285;50.180;7.036;2022-10-17T22:22:26;18.70;99.90
37426;DHT22;23285;50.180;7.036;2022-10-17T22:25:11;19.00;99.90
37426;DHT22;23285;50.180;7.036;2022-10-17T22:30:42;18.70;99.90
37426;DHT22;23285;50.180;7.036;2022-10-17T22:38:57;19.00;99.90
37426;DHT22;23285;50.180;7.036;2022-10-17T22:44:28;18.70;99.90
37426;DHT22;23285;50.180;7.036;2022-10-17T22:47:13;18.40;99.90
37426;DHT22;23285;50.180;7.036;2022-10-17T22:49:58;18.40;99.90
37426;DHT22;23285;50.180;7.036;2022-10-17T22:52:43;18.70;99.90
37426;DHT22;23285;50.180;7.036;2022-10-17T22:55:28;18.90;99.90
37426;DHT22;23285;50.180;7.036;2022-10-17T22:58:13;18.70;99.90
37426;DHT22;23285;50.180;7.036;2022-10-17T23:06:28;18.30;99.90
37426;DHT22;23285;50.180;7.036;2022-10-17T23:09:13;18.30;99.90
37426;DHT22;23285;50.180;7.036;2022-10-17T23:11:58;18.40;99.90
37426;DHT22;23285;50.180;7.036;2022-10-17T23:14:43;18.30;99.90
37426;DHT22;23285;50.180;7.036;2022-10-17T23:17:28;18.70;99.90
37426;DHT22;23285;50.180;7.036;2022-10-17T23:22:58;19.00;99.90
37426;DHT22;23285;50.180;7.036;2022-10-17T23:28:29;18.80;99.90
37426;DHT22;23285;50.180;7.036;2022-10-17T23:31:17;18.60;99.90
37426;DHT22;23285;50.180;7.036;2022-10-17T23:34:03;18.30;99.90
37426;DHT22;23285;50.180;7.036;2022-10-17T23:39:33;18.30;99.90
37426;DHT22;23285;50.180;7.036;2022-10-17T23:42:19;18.20;99.90
37426;DHT22;23285;50.180;7.036;2022-10-17T23:45:04;18.60;99.90
37426;DHT22;23285;50.180;7.036;2022-10-17T23:47:49;19.20;99.90
37426;DHT22;23285;50.180;7.036;2022-10-17T23:50:34;18.90;99.90
37426;DHT22;23285;50.180;7.036;2022-10-17T23:53:20;18.60;99.90
37426;DHT22;23285;50.180;7.036;2022-10-17T23:56:06;18.20;99.90
